FFT204 KPHL-KMYR
Flight info
| Callsign | FFT204 |
|---|---|
| Flight time | 1h 15m |
| Altitude | 34000 |
| Route | OOD TEBEE HAYDO TRPOD Q409 CRPLR PAACK WYLMS |
| Aircraft | A320/M-SDE3FGHIRWY/LB1 |
Departure
| Time | 2026-05-06 21:38 |
|---|---|
| Airport | Philadelphia International Airport (KPHL) |
Arrival
| Time | 2026-05-06 22:53 |
|---|---|
| Airport | Myrtle Beach International Airport (KMYR) |
| Time | Latitude | Longitude | Altitude | Speed | Heading |
|---|---|---|---|---|---|
| 2026-05-06 21:15 | 39.87956 | -75.23572 | 22 ft | 0 kts | 357° |
| 2026-05-06 21:28 | 39.87945 | -75.23572 | 23 ft | 4 kts | 4° |
| 2026-05-06 21:29 | 39.87924 | -75.23581 | 22 ft | 4 kts | 59° |
| 2026-05-06 21:29 | 39.87921 | -75.23601 | 22 ft | 0 kts | 109° |
| 2026-05-06 21:34 | 39.87895 | -75.23503 | 22 ft | 17 kts | 109° |
| 2026-05-06 21:34 | 39.87824 | -75.23420 | 24 ft | 14 kts | 159° |
| 2026-05-06 21:34 | 39.87690 | -75.23355 | 21 ft | 25 kts | 159° |
| 2026-05-06 21:35 | 39.87524 | -75.23272 | 22 ft | 26 kts | 159° |
| 2026-05-06 21:35 | 39.87350 | -75.23190 | 18 ft | 27 kts | 159° |
| 2026-05-06 21:35 | 39.87206 | -75.23110 | 16 ft | 17 kts | 160° |
| 2026-05-06 21:35 | 39.87118 | -75.23159 | 16 ft | 16 kts | 232° |
| 2026-05-06 21:36 | 39.87052 | -75.23270 | 17 ft | 15 kts | 243° |
| 2026-05-06 21:36 | 39.87014 | -75.23402 | 17 ft | 15 kts | 236° |
| 2026-05-06 21:36 | 39.86916 | -75.23410 | 17 ft | 14 kts | 193° |
| 2026-05-06 21:36 | 39.86885 | -75.23488 | 19 ft | 8 kts | 255° |
| 2026-05-06 21:37 | 39.86874 | -75.23542 | 20 ft | 8 kts | 255° |
| 2026-05-06 21:37 | 39.86798 | -75.23922 | 22 ft | 78 kts | 255° |
| 2026-05-06 21:37 | 39.86686 | -75.24485 | 19 ft | 116 kts | 256° |
| 2026-05-06 21:37 | 39.86443 | -75.25711 | 24 ft | 163 kts | 256° |
| 2026-05-06 21:38 | 39.86185 | -75.27168 | 579 ft | 165 kts | 256° |
| 2026-05-06 21:38 | 39.85939 | -75.28623 | 1278 ft | 165 kts | 254° |
| 2026-05-06 21:38 | 39.85665 | -75.30076 | 1974 ft | 166 kts | 255° |
| 2026-05-06 21:38 | 39.85335 | -75.31635 | 2235 ft | 190 kts | 252° |
| 2026-05-06 21:39 | 39.84818 | -75.33319 | 2498 ft | 213 kts | 234° |
| 2026-05-06 21:39 | 39.83570 | -75.34505 | 2902 ft | 240 kts | 199° |
| 2026-05-06 21:39 | 39.81849 | -75.34533 | 3630 ft | 256 kts | 177° |
| 2026-05-06 21:39 | 39.80066 | -75.34173 | 4509 ft | 263 kts | 176° |
| 2026-05-06 21:40 | 39.78243 | -75.33743 | 5409 ft | 270 kts | 175° |
| 2026-05-06 21:40 | 39.76385 | -75.33289 | 6250 ft | 274 kts | 176° |
| 2026-05-06 21:40 | 39.74498 | -75.32830 | 7013 ft | 278 kts | 176° |
| 2026-05-06 21:40 | 39.72593 | -75.32373 | 7840 ft | 279 kts | 177° |
| 2026-05-06 21:41 | 39.70673 | -75.31920 | 8669 ft | 281 kts | 178° |
| 2026-05-06 21:41 | 39.68743 | -75.31473 | 9502 ft | 283 kts | 178° |
| 2026-05-06 21:41 | 39.66797 | -75.31030 | 10245 ft | 286 kts | 179° |
| 2026-05-06 21:41 | 39.64765 | -75.30596 | 10532 ft | 306 kts | 181° |
| 2026-05-06 21:42 | 39.62594 | -75.30529 | 10781 ft | 318 kts | 192° |
| 2026-05-06 21:42 | 39.60383 | -75.30912 | 11347 ft | 323 kts | 195° |
| 2026-05-06 21:42 | 39.58145 | -75.31322 | 12034 ft | 327 kts | 195° |
| 2026-05-06 21:42 | 39.55872 | -75.31730 | 12718 ft | 331 kts | 195° |
| 2026-05-06 21:43 | 39.53575 | -75.32140 | 13396 ft | 335 kts | 195° |
| 2026-05-06 21:43 | 39.51249 | -75.32558 | 13987 ft | 340 kts | 195° |
| 2026-05-06 21:43 | 39.48890 | -75.32984 | 14554 ft | 344 kts | 196° |
| 2026-05-06 21:43 | 39.46505 | -75.33416 | 15133 ft | 348 kts | 195° |
| 2026-05-06 21:44 | 39.44094 | -75.33854 | 15722 ft | 352 kts | 196° |
| 2026-05-06 21:44 | 39.41688 | -75.34287 | 16298 ft | 356 kts | 195° |
| 2026-05-06 21:44 | 39.39189 | -75.34735 | 16880 ft | 359 kts | 195° |
| 2026-05-06 21:44 | 39.36735 | -75.35176 | 17452 ft | 363 kts | 195° |
| 2026-05-06 21:45 | 39.34224 | -75.35625 | 18024 ft | 367 kts | 195° |
| 2026-05-06 21:45 | 39.31684 | -75.36081 | 18478 ft | 370 kts | 196° |
| 2026-05-06 21:45 | 39.29123 | -75.36542 | 18986 ft | 373 kts | 197° |
| 2026-05-06 21:45 | 39.26543 | -75.37006 | 19502 ft | 376 kts | 197° |
| 2026-05-06 21:46 | 39.23945 | -75.37474 | 20016 ft | 378 kts | 197° |
| 2026-05-06 21:46 | 39.21330 | -75.37943 | 20536 ft | 381 kts | 197° |
| 2026-05-06 21:46 | 39.18696 | -75.38415 | 21044 ft | 384 kts | 198° |
| 2026-05-06 21:46 | 39.16041 | -75.38890 | 21570 ft | 386 kts | 198° |
| 2026-05-06 21:47 | 39.13370 | -75.39368 | 22085 ft | 389 kts | 198° |
| 2026-05-06 21:47 | 39.10682 | -75.39848 | 22574 ft | 392 kts | 198° |
| 2026-05-06 21:47 | 39.07974 | -75.40331 | 23027 ft | 395 kts | 198° |
| 2026-05-06 21:47 | 39.05245 | -75.40817 | 23484 ft | 397 kts | 199° |
| 2026-05-06 21:48 | 39.02496 | -75.41305 | 23873 ft | 399 kts | 199° |
| 2026-05-06 21:48 | 38.99736 | -75.41794 | 24264 ft | 401 kts | 199° |
| 2026-05-06 21:48 | 38.96966 | -75.42285 | 24658 ft | 403 kts | 199° |
| 2026-05-06 21:48 | 38.94179 | -75.42780 | 25064 ft | 405 kts | 199° |
| 2026-05-06 21:49 | 38.91381 | -75.43279 | 25445 ft | 406 kts | 199° |
| 2026-05-06 21:49 | 38.88576 | -75.43778 | 25786 ft | 408 kts | 199° |
| 2026-05-06 21:49 | 38.85757 | -75.44280 | 26153 ft | 409 kts | 199° |
| 2026-05-06 21:49 | 38.82928 | -75.44782 | 26513 ft | 411 kts | 199° |
| 2026-05-06 21:50 | 38.80089 | -75.45284 | 26857 ft | 413 kts | 199° |
| 2026-05-06 21:50 | 38.77238 | -75.45786 | 27202 ft | 415 kts | 199° |
| 2026-05-06 21:50 | 38.74374 | -75.46292 | 27543 ft | 416 kts | 199° |
| 2026-05-06 21:50 | 38.71500 | -75.46797 | 27879 ft | 418 kts | 199° |
| 2026-05-06 21:51 | 38.68651 | -75.47297 | 28194 ft | 420 kts | 199° |
| 2026-05-06 21:51 | 38.65714 | -75.47814 | 28515 ft | 421 kts | 199° |
| 2026-05-06 21:51 | 38.62843 | -75.48318 | 28815 ft | 423 kts | 199° |
| 2026-05-06 21:51 | 38.59921 | -75.48833 | 29108 ft | 425 kts | 199° |
| 2026-05-06 21:52 | 38.56987 | -75.49350 | 29403 ft | 426 kts | 199° |
| 2026-05-06 21:52 | 38.54042 | -75.49869 | 29686 ft | 428 kts | 199° |
| 2026-05-06 21:52 | 38.51086 | -75.50388 | 29958 ft | 430 kts | 199° |
| 2026-05-06 21:52 | 38.48121 | -75.50906 | 30190 ft | 431 kts | 200° |
| 2026-05-06 21:53 | 38.45148 | -75.51427 | 30403 ft | 432 kts | 200° |
| 2026-05-06 21:53 | 38.42158 | -75.51951 | 30545 ft | 435 kts | 199° |
| 2026-05-06 21:53 | 38.39151 | -75.52477 | 30713 ft | 438 kts | 199° |
| 2026-05-06 21:53 | 38.36178 | -75.53168 | 30921 ft | 428 kts | 206° |
| 2026-05-06 21:54 | 38.33402 | -75.54372 | 31200 ft | 415 kts | 214° |
| 2026-05-06 21:54 | 38.30875 | -75.56029 | 31482 ft | 404 kts | 222° |
| 2026-05-06 21:54 | 38.28569 | -75.58014 | 31767 ft | 399 kts | 224° |
| 2026-05-06 21:54 | 38.26284 | -75.60020 | 32058 ft | 398 kts | 224° |
| 2026-05-06 21:55 | 38.24008 | -75.62011 | 32355 ft | 397 kts | 224° |
| 2026-05-06 21:55 | 38.21728 | -75.63999 | 32560 ft | 398 kts | 223° |
| 2026-05-06 21:55 | 38.19436 | -75.65998 | 32686 ft | 402 kts | 223° |
| 2026-05-06 21:55 | 38.17121 | -75.68013 | 32869 ft | 404 kts | 223° |
| 2026-05-06 21:56 | 38.14801 | -75.70026 | 33108 ft | 404 kts | 223° |
| 2026-05-06 21:56 | 38.12484 | -75.72034 | 33363 ft | 404 kts | 223° |
| 2026-05-06 21:56 | 38.10163 | -75.74044 | 33633 ft | 403 kts | 223° |
| 2026-05-06 21:56 | 38.07876 | -75.76023 | 33841 ft | 404 kts | 223° |
| 2026-05-06 21:57 | 38.03288 | -75.79982 | 33886 ft | 394 kts | 224° |
| 2026-05-06 21:57 | 37.98762 | -75.83894 | 33887 ft | 396 kts | 223° |
| 2026-05-06 21:58 | 37.94204 | -75.87842 | 33894 ft | 397 kts | 223° |
| 2026-05-06 21:58 | 37.89631 | -75.91788 | 33895 ft | 398 kts | 223° |
| 2026-05-06 21:59 | 37.85058 | -75.95722 | 33910 ft | 398 kts | 223° |
| 2026-05-06 21:59 | 37.80473 | -75.99654 | 33893 ft | 398 kts | 223° |
| 2026-05-06 22:00 | 37.75883 | -76.03591 | 33887 ft | 400 kts | 223° |
| 2026-05-06 22:00 | 37.71274 | -76.07539 | 33886 ft | 401 kts | 223° |
| 2026-05-06 22:01 | 37.66653 | -76.11494 | 33885 ft | 402 kts | 223° |
| 2026-05-06 22:01 | 37.62020 | -76.15443 | 33904 ft | 402 kts | 223° |
| 2026-05-06 22:02 | 37.57110 | -76.18970 | 33917 ft | 408 kts | 217° |
| 2026-05-06 22:02 | 37.52093 | -76.22304 | 33920 ft | 407 kts | 217° |
| 2026-05-06 22:03 | 37.47091 | -76.25636 | 33928 ft | 406 kts | 217° |
| 2026-05-06 22:03 | 37.42094 | -76.28958 | 33927 ft | 406 kts | 217° |
| 2026-05-06 22:04 | 37.37096 | -76.32272 | 33921 ft | 406 kts | 218° |
| 2026-05-06 22:04 | 37.32093 | -76.35587 | 33914 ft | 407 kts | 218° |
| 2026-05-06 22:05 | 37.27082 | -76.38900 | 33913 ft | 407 kts | 218° |
| 2026-05-06 22:05 | 37.22063 | -76.42210 | 33914 ft | 408 kts | 218° |
| 2026-05-06 22:06 | 37.17040 | -76.45515 | 33884 ft | 408 kts | 218° |
| 2026-05-06 22:06 | 37.12014 | -76.48822 | 33893 ft | 408 kts | 218° |
| 2026-05-06 22:07 | 37.07024 | -76.52110 | 33905 ft | 408 kts | 218° |
| 2026-05-06 22:07 | 37.01991 | -76.55415 | 33903 ft | 408 kts | 218° |
| 2026-05-06 22:08 | 36.96956 | -76.58715 | 33908 ft | 408 kts | 218° |
| 2026-05-06 22:08 | 36.91916 | -76.62003 | 33900 ft | 409 kts | 218° |
| 2026-05-06 22:09 | 36.86864 | -76.65297 | 33908 ft | 410 kts | 218° |
| 2026-05-06 22:09 | 36.81797 | -76.68597 | 33920 ft | 411 kts | 218° |
| 2026-05-06 22:10 | 36.76730 | -76.71903 | 33926 ft | 411 kts | 218° |
| 2026-05-06 22:10 | 36.71652 | -76.75204 | 33910 ft | 412 kts | 218° |
| 2026-05-06 22:11 | 36.66560 | -76.78513 | 33916 ft | 413 kts | 218° |
| 2026-05-06 22:11 | 36.61450 | -76.81828 | 33919 ft | 414 kts | 218° |
| 2026-05-06 22:12 | 36.56333 | -76.85141 | 33924 ft | 415 kts | 218° |
| 2026-05-06 22:12 | 36.51207 | -76.88455 | 33931 ft | 415 kts | 218° |
| 2026-05-06 22:13 | 36.46082 | -76.91762 | 33918 ft | 416 kts | 217° |
| 2026-05-06 22:13 | 36.40940 | -76.95077 | 33925 ft | 417 kts | 217° |
| 2026-05-06 22:14 | 36.35818 | -76.98371 | 33930 ft | 418 kts | 217° |
| 2026-05-06 22:14 | 36.30653 | -77.01683 | 33929 ft | 418 kts | 217° |
| 2026-05-06 22:15 | 36.25485 | -77.04998 | 33921 ft | 418 kts | 218° |
| 2026-05-06 22:15 | 36.20309 | -77.08313 | 33924 ft | 419 kts | 218° |
| 2026-05-06 22:16 | 36.15131 | -77.11623 | 33933 ft | 419 kts | 218° |
| 2026-05-06 22:16 | 36.09952 | -77.14930 | 33938 ft | 419 kts | 218° |
| 2026-05-06 22:17 | 36.04767 | -77.18236 | 33907 ft | 419 kts | 218° |
| 2026-05-06 22:17 | 35.99577 | -77.21547 | 33919 ft | 420 kts | 217° |
| 2026-05-06 22:18 | 35.94376 | -77.24862 | 33927 ft | 422 kts | 217° |
| 2026-05-06 22:18 | 35.89078 | -77.28047 | 33932 ft | 425 kts | 216° |
| 2026-05-06 22:19 | 35.86396 | -77.29580 | 33829 ft | 425 kts | 215° |
| 2026-05-06 22:19 | 35.83712 | -77.31085 | 33223 ft | 423 kts | 214° |
| 2026-05-06 22:19 | 35.81044 | -77.32566 | 32652 ft | 419 kts | 213° |
| 2026-05-06 22:19 | 35.78398 | -77.34036 | 32120 ft | 415 kts | 213° |
| 2026-05-06 22:20 | 35.75779 | -77.35504 | 31611 ft | 411 kts | 212° |
| 2026-05-06 22:20 | 35.73193 | -77.36964 | 31134 ft | 407 kts | 212° |
| 2026-05-06 22:20 | 35.70629 | -77.38419 | 30647 ft | 404 kts | 212° |
| 2026-05-06 22:20 | 35.68093 | -77.39860 | 30183 ft | 400 kts | 211° |
| 2026-05-06 22:21 | 35.65577 | -77.41292 | 29678 ft | 397 kts | 211° |
| 2026-05-06 22:21 | 35.63082 | -77.42710 | 29140 ft | 394 kts | 211° |
| 2026-05-06 22:21 | 35.60603 | -77.44115 | 28602 ft | 391 kts | 211° |
| 2026-05-06 22:21 | 35.58140 | -77.45507 | 28080 ft | 388 kts | 211° |
| 2026-05-06 22:22 | 35.55690 | -77.46890 | 27933 ft | 388 kts | 211° |
| 2026-05-06 22:22 | 35.53230 | -77.48277 | 27965 ft | 390 kts | 211° |
| 2026-05-06 22:22 | 35.50791 | -77.49648 | 27967 ft | 391 kts | 211° |
| 2026-05-06 22:22 | 35.48322 | -77.51037 | 27980 ft | 391 kts | 211° |
| 2026-05-06 22:23 | 35.45850 | -77.52430 | 27980 ft | 391 kts | 211° |
| 2026-05-06 22:23 | 35.43380 | -77.53824 | 27980 ft | 391 kts | 211° |
| 2026-05-06 22:23 | 35.40912 | -77.55215 | 27981 ft | 391 kts | 211° |
| 2026-05-06 22:23 | 35.38441 | -77.56606 | 27980 ft | 391 kts | 211° |
| 2026-05-06 22:24 | 35.35971 | -77.57994 | 27980 ft | 391 kts | 211° |
| 2026-05-06 22:24 | 35.33496 | -77.59381 | 27996 ft | 391 kts | 211° |
| 2026-05-06 22:24 | 35.31028 | -77.60764 | 27980 ft | 390 kts | 211° |
| 2026-05-06 22:24 | 35.28563 | -77.62142 | 27980 ft | 389 kts | 211° |
| 2026-05-06 22:25 | 35.26106 | -77.63517 | 27979 ft | 389 kts | 211° |
| 2026-05-06 22:25 | 35.23643 | -77.64895 | 27980 ft | 389 kts | 211° |
| 2026-05-06 22:25 | 35.21179 | -77.66271 | 27981 ft | 389 kts | 211° |
| 2026-05-06 22:25 | 35.18727 | -77.67640 | 27659 ft | 386 kts | 211° |
| 2026-05-06 22:26 | 35.16293 | -77.68998 | 27167 ft | 383 kts | 211° |
| 2026-05-06 22:26 | 35.13875 | -77.70348 | 26685 ft | 381 kts | 211° |
| 2026-05-06 22:26 | 35.11475 | -77.71691 | 26198 ft | 378 kts | 211° |
| 2026-05-06 22:26 | 35.09088 | -77.73024 | 25745 ft | 376 kts | 210° |
| 2026-05-06 22:27 | 35.06715 | -77.74343 | 25294 ft | 374 kts | 210° |
| 2026-05-06 22:27 | 35.04354 | -77.75655 | 24850 ft | 372 kts | 210° |
| 2026-05-06 22:27 | 35.02012 | -77.76958 | 24410 ft | 369 kts | 210° |
| 2026-05-06 22:27 | 35.00466 | -77.77819 | 24128 ft | 368 kts | 210° |
| 2026-05-06 22:28 | 34.98143 | -77.79110 | 23687 ft | 366 kts | 210° |
| 2026-05-06 22:28 | 34.95828 | -77.80391 | 23206 ft | 364 kts | 210° |
| 2026-05-06 22:28 | 34.93529 | -77.81664 | 22695 ft | 362 kts | 210° |
| 2026-05-06 22:28 | 34.91245 | -77.82931 | 22216 ft | 360 kts | 211° |
| 2026-05-06 22:29 | 34.88971 | -77.84194 | 21756 ft | 358 kts | 211° |
| 2026-05-06 22:29 | 34.86714 | -77.85447 | 21285 ft | 355 kts | 211° |
| 2026-05-06 22:29 | 34.84456 | -77.86701 | 20554 ft | 362 kts | 211° |
| 2026-05-06 22:29 | 34.82149 | -77.87984 | 19898 ft | 367 kts | 211° |
| 2026-05-06 22:30 | 34.79826 | -77.89268 | 19390 ft | 367 kts | 211° |
| 2026-05-06 22:30 | 34.77507 | -77.90543 | 18925 ft | 365 kts | 211° |
| 2026-05-06 22:30 | 34.75195 | -77.91810 | 18477 ft | 364 kts | 211° |
| 2026-05-06 22:30 | 34.72891 | -77.93073 | 18007 ft | 362 kts | 212° |
| 2026-05-06 22:31 | 34.70605 | -77.94330 | 17551 ft | 359 kts | 212° |
| 2026-05-06 22:31 | 34.68342 | -77.95579 | 17129 ft | 355 kts | 212° |
| 2026-05-06 22:31 | 34.66106 | -77.96814 | 16737 ft | 351 kts | 212° |
| 2026-05-06 22:31 | 34.63893 | -77.98034 | 16320 ft | 348 kts | 212° |
| 2026-05-06 22:32 | 34.61698 | -77.99242 | 15901 ft | 345 kts | 212° |
| 2026-05-06 22:32 | 34.59521 | -78.00439 | 15504 ft | 342 kts | 212° |
| 2026-05-06 22:32 | 34.57366 | -78.01623 | 15130 ft | 338 kts | 212° |
| 2026-05-06 22:32 | 34.55231 | -78.02793 | 14748 ft | 335 kts | 212° |
| 2026-05-06 22:33 | 34.53116 | -78.03950 | 14387 ft | 332 kts | 212° |
| 2026-05-06 22:33 | 34.51024 | -78.05096 | 14014 ft | 329 kts | 212° |
| 2026-05-06 22:33 | 34.48948 | -78.06235 | 13629 ft | 326 kts | 213° |
| 2026-05-06 22:33 | 34.46894 | -78.07364 | 13200 ft | 323 kts | 212° |
| 2026-05-06 22:34 | 34.44854 | -78.08484 | 12747 ft | 321 kts | 212° |
| 2026-05-06 22:34 | 34.42824 | -78.09598 | 12285 ft | 320 kts | 212° |
| 2026-05-06 22:34 | 34.40801 | -78.10710 | 11815 ft | 318 kts | 212° |
| 2026-05-06 22:34 | 34.38816 | -78.11796 | 11358 ft | 317 kts | 211° |
| 2026-05-06 22:35 | 34.36805 | -78.12892 | 11030 ft | 316 kts | 211° |
| 2026-05-06 22:35 | 34.34795 | -78.13986 | 10970 ft | 317 kts | 210° |
| 2026-05-06 22:35 | 34.32780 | -78.15083 | 10981 ft | 318 kts | 210° |
| 2026-05-06 22:35 | 34.30774 | -78.16209 | 10981 ft | 316 kts | 215° |
| 2026-05-06 22:36 | 34.29094 | -78.17822 | 10980 ft | 305 kts | 234° |
| 2026-05-06 22:36 | 34.27901 | -78.19907 | 10943 ft | 300 kts | 241° |
| 2026-05-06 22:36 | 34.26791 | -78.22023 | 10634 ft | 294 kts | 242° |
| 2026-05-06 22:36 | 34.25712 | -78.24089 | 10396 ft | 287 kts | 242° |
| 2026-05-06 22:37 | 34.24657 | -78.26111 | 10164 ft | 283 kts | 242° |
| 2026-05-06 22:37 | 34.23613 | -78.28119 | 9936 ft | 280 kts | 241° |
| 2026-05-06 22:37 | 34.22595 | -78.30070 | 9807 ft | 269 kts | 241° |
| 2026-05-06 22:37 | 34.21607 | -78.31964 | 9676 ft | 265 kts | 241° |
| 2026-05-06 22:38 | 34.20625 | -78.33847 | 9551 ft | 264 kts | 241° |
| 2026-05-06 22:38 | 34.19644 | -78.35722 | 9414 ft | 264 kts | 241° |
| 2026-05-06 22:38 | 34.18665 | -78.37589 | 9307 ft | 261 kts | 241° |
| 2026-05-06 22:38 | 34.17692 | -78.39441 | 9146 ft | 262 kts | 241° |
| 2026-05-06 22:39 | 34.16716 | -78.41309 | 9020 ft | 264 kts | 241° |
| 2026-05-06 22:39 | 34.15735 | -78.43183 | 8897 ft | 264 kts | 241° |
| 2026-05-06 22:39 | 34.14752 | -78.45056 | 8770 ft | 263 kts | 240° |
| 2026-05-06 22:39 | 34.13771 | -78.46919 | 8644 ft | 263 kts | 240° |
| 2026-05-06 22:40 | 34.12792 | -78.48781 | 8527 ft | 263 kts | 240° |
| 2026-05-06 22:40 | 34.11812 | -78.50645 | 8395 ft | 263 kts | 240° |
| 2026-05-06 22:40 | 34.10834 | -78.52506 | 8274 ft | 263 kts | 240° |
| 2026-05-06 22:40 | 34.09855 | -78.54365 | 8151 ft | 262 kts | 240° |
| 2026-05-06 22:41 | 34.07899 | -78.58080 | 7909 ft | 262 kts | 240° |
| 2026-05-06 22:41 | 34.06922 | -78.59932 | 7786 ft | 262 kts | 240° |
| 2026-05-06 22:41 | 34.05947 | -78.61778 | 7663 ft | 261 kts | 240° |
| 2026-05-06 22:42 | 34.04973 | -78.63625 | 7543 ft | 260 kts | 240° |
| 2026-05-06 22:42 | 34.04003 | -78.65466 | 7432 ft | 260 kts | 240° |
| 2026-05-06 22:42 | 34.03031 | -78.67307 | 7312 ft | 260 kts | 240° |
| 2026-05-06 22:42 | 34.02071 | -78.69128 | 6936 ft | 261 kts | 240° |
| 2026-05-06 22:43 | 34.01094 | -78.70978 | 6487 ft | 262 kts | 240° |
| 2026-05-06 22:43 | 34.00114 | -78.72834 | 6062 ft | 261 kts | 240° |
| 2026-05-06 22:43 | 33.99138 | -78.74679 | 5654 ft | 259 kts | 239° |
| 2026-05-06 22:43 | 33.98167 | -78.76510 | 5191 ft | 260 kts | 239° |
| 2026-05-06 22:44 | 33.97213 | -78.78306 | 4983 ft | 245 kts | 239° |
| 2026-05-06 22:44 | 33.96334 | -78.79958 | 4850 ft | 223 kts | 239° |
| 2026-05-06 22:44 | 33.95525 | -78.81479 | 4577 ft | 210 kts | 238° |
| 2026-05-06 22:44 | 33.94742 | -78.82953 | 4140 ft | 209 kts | 238° |
| 2026-05-06 22:45 | 33.93969 | -78.84410 | 3779 ft | 205 kts | 238° |
| 2026-05-06 22:45 | 33.93203 | -78.85855 | 3320 ft | 205 kts | 237° |
| 2026-05-06 22:45 | 33.92439 | -78.87296 | 3014 ft | 202 kts | 237° |
| 2026-05-06 22:45 | 33.91701 | -78.88687 | 2875 ft | 192 kts | 237° |
| 2026-05-06 22:46 | 33.91000 | -78.90008 | 2788 ft | 182 kts | 236° |
| 2026-05-06 22:46 | 33.90340 | -78.91248 | 2664 ft | 170 kts | 236° |
| 2026-05-06 22:46 | 33.89719 | -78.92416 | 2525 ft | 161 kts | 236° |
| 2026-05-06 22:46 | 33.89133 | -78.93515 | 2402 ft | 151 kts | 237° |
| 2026-05-06 22:47 | 33.88591 | -78.94536 | 2260 ft | 138 kts | 236° |
| 2026-05-06 22:47 | 33.88085 | -78.95487 | 2049 ft | 132 kts | 235° |
| 2026-05-06 22:47 | 33.87557 | -78.96396 | 2004 ft | 132 kts | 226° |
| 2026-05-06 22:47 | 33.86804 | -78.97035 | 1999 ft | 134 kts | 204° |
| 2026-05-06 22:48 | 33.85889 | -78.97186 | 2001 ft | 137 kts | 174° |
| 2026-05-06 22:48 | 33.84965 | -78.96976 | 1991 ft | 133 kts | 178° |
| 2026-05-06 22:48 | 33.84060 | -78.96803 | 1982 ft | 133 kts | 174° |
| 2026-05-06 22:48 | 33.83150 | -78.96602 | 1988 ft | 133 kts | 174° |
| 2026-05-06 22:49 | 33.82233 | -78.96386 | 1989 ft | 132 kts | 174° |
| 2026-05-06 22:49 | 33.81342 | -78.96170 | 1984 ft | 132 kts | 175° |
| 2026-05-06 22:49 | 33.80440 | -78.95947 | 1982 ft | 132 kts | 175° |
| 2026-05-06 22:49 | 33.79536 | -78.95723 | 1948 ft | 133 kts | 173° |
| 2026-05-06 22:50 | 33.78632 | -78.95497 | 1831 ft | 133 kts | 173° |
| 2026-05-06 22:50 | 33.77729 | -78.95272 | 1680 ft | 132 kts | 172° |
| 2026-05-06 22:50 | 33.76832 | -78.95047 | 1519 ft | 131 kts | 173° |
| 2026-05-06 22:50 | 33.75944 | -78.94825 | 1360 ft | 130 kts | 174° |
| 2026-05-06 22:51 | 33.75058 | -78.94603 | 1187 ft | 130 kts | 172° |
| 2026-05-06 22:51 | 33.74171 | -78.94382 | 1031 ft | 131 kts | 171° |
| 2026-05-06 22:51 | 33.73274 | -78.94158 | 868 ft | 131 kts | 171° |
| 2026-05-06 22:51 | 33.72385 | -78.93935 | 690 ft | 130 kts | 172° |
| 2026-05-06 22:52 | 33.71508 | -78.93716 | 533 ft | 129 kts | 172° |
| 2026-05-06 22:52 | 33.70634 | -78.93497 | 360 ft | 128 kts | 171° |
| 2026-05-06 22:52 | 33.69757 | -78.93270 | 177 ft | 131 kts | 171° |
| 2026-05-06 22:52 | 33.68872 | -78.93053 | 40 ft | 125 kts | 173° |
| 2026-05-06 22:53 | 33.68156 | -78.92879 | 31 ft | 81 kts | 168° |
| 2026-05-06 22:53 | 33.67743 | -78.92776 | 32 ft | 39 kts | 171° |
| 2026-05-06 22:53 | 33.67553 | -78.92663 | 30 ft | 30 kts | 135° |
| 2026-05-06 22:53 | 33.67479 | -78.92537 | 32 ft | 15 kts | 69° |
| 2026-05-06 22:54 | 33.67559 | -78.92531 | 32 ft | 14 kts | 352° |
| 2026-05-06 22:54 | 33.67747 | -78.92573 | 32 ft | 35 kts | 348° |
| 2026-05-06 22:54 | 33.67982 | -78.92630 | 32 ft | 25 kts | 352° |
| 2026-05-06 22:54 | 33.68095 | -78.92597 | 32 ft | 14 kts | 72° |
| 2026-05-06 22:55 | 33.68102 | -78.92488 | 32 ft | 10 kts | 128° |
| 2026-05-06 22:55 | 33.68069 | -78.92464 | 32 ft | 0 kts | 150° |
| 2026-05-06 22:55 | 33.68063 | -78.92460 | 32 ft | 3 kts | 152° |
| 2026-05-06 22:55 | 33.68062 | -78.92460 | 32 ft | 0 kts | 152° |